sensor_id;sensor_type;location;lat;lon;timestamp;P1;durP1;ratioP1;P2;durP2;ratioP2
11064;SDS011;5585;52.530;7.320;2023-07-08T00:00:34;3.28;;;2.70;;
11064;SDS011;5585;52.530;7.320;2023-07-08T00:03:00;3.03;;;2.47;;
11064;SDS011;5585;52.530;7.320;2023-07-08T00:05:27;4.97;;;3.22;;
11064;SDS011;5585;52.530;7.320;2023-07-08T00:07:55;4.07;;;3.17;;
11064;SDS011;5585;52.530;7.320;2023-07-08T00:10:23;3.72;;;2.60;;
11064;SDS011;5585;52.530;7.320;2023-07-08T00:12:50;5.20;;;2.95;;
11064;SDS011;5585;52.530;7.320;2023-07-08T00:15:17;2.90;;;2.50;;
11064;SDS011;5585;52.530;7.320;2023-07-08T00:17:44;3.65;;;3.13;;
11064;SDS011;5585;52.530;7.320;2023-07-08T00:20:11;3.75;;;2.60;;
11064;SDS011;5585;52.530;7.320;2023-07-08T00:22:41;5.18;;;3.05;;
11064;SDS011;5585;52.530;7.320;2023-07-08T00:25:09;3.75;;;2.85;;
11064;SDS011;5585;52.530;7.320;2023-07-08T00:27:36;3.58;;;2.92;;
11064;SDS011;5585;52.530;7.320;2023-07-08T00:30:09;3.15;;;2.53;;
11064;SDS011;5585;52.530;7.320;2023-07-08T00:32:40;4.47;;;2.95;;
11064;SDS011;5585;52.530;7.320;2023-07-08T00:35:07;3.60;;;2.78;;
11064;SDS011;5585;52.530;7.320;2023-07-08T00:37:33;4.03;;;2.83;;
11064;SDS011;5585;52.530;7.320;2023-07-08T00:40:00;4.32;;;3.03;;
11064;SDS011;5585;52.530;7.320;2023-07-08T00:42:28;3.53;;;2.88;;
11064;SDS011;5585;52.530;7.320;2023-07-08T00:44:55;5.13;;;2.90;;
11064;SDS011;5585;52.530;7.320;2023-07-08T00:47:22;3.55;;;2.85;;
11064;SDS011;5585;52.530;7.320;2023-07-08T00:49:49;3.63;;;2.83;;
11064;SDS011;5585;52.530;7.320;2023-07-08T00:52:18;4.78;;;3.28;;
11064;SDS011;5585;52.530;7.320;2023-07-08T00:54:45;3.28;;;2.97;;
11064;SDS011;5585;52.530;7.320;2023-07-08T00:57:12;3.00;;;2.70;;
11064;SDS011;5585;52.530;7.320;2023-07-08T00:59:42;4.18;;;3.05;;
11064;SDS011;5585;52.530;7.320;2023-07-08T01:02:10;5.95;;;2.92;;
11064;SDS011;5585;52.530;7.320;2023-07-08T01:04:39;3.22;;;2.92;;
11064;SDS011;5585;52.530;7.320;2023-07-08T01:07:08;4.03;;;3.15;;
11064;SDS011;5585;52.530;7.320;2023-07-08T01:09:36;3.83;;;2.55;;
11064;SDS011;5585;52.530;7.320;2023-07-08T01:12:03;3.40;;;3.10;;
11064;SDS011;5585;52.530;7.320;2023-07-08T01:14:32;3.75;;;3.17;;
11064;SDS011;5585;52.530;7.320;2023-07-08T01:17:02;3.28;;;2.78;;
11064;SDS011;5585;52.530;7.320;2023-07-08T01:19:29;5.22;;;3.00;;
11064;SDS011;5585;52.530;7.320;2023-07-08T01:21:59;6.30;;;3.35;;
11064;SDS011;5585;52.530;7.320;2023-07-08T01:24:26;3.78;;;3.17;;
11064;SDS011;5585;52.530;7.320;2023-07-08T01:26:53;4.13;;;3.30;;
11064;SDS011;5585;52.530;7.320;2023-07-08T01:29:20;4.70;;;3.55;;
11064;SDS011;5585;52.530;7.320;2023-07-08T01:31:47;3.67;;;3.13;;
11064;SDS011;5585;52.530;7.320;2023-07-08T01:34:14;4.18;;;3.22;;
11064;SDS011;5585;52.530;7.320;2023-07-08T01:36:43;3.35;;;3.03;;
11064;SDS011;5585;52.530;7.320;2023-07-08T01:39:13;3.88;;;2.88;;
11064;SDS011;5585;52.530;7.320;2023-07-08T01:41:40;3.72;;;3.13;;
11064;SDS011;5585;52.530;7.320;2023-07-08T01:44:18;3.63;;;3.25;;
11064;SDS011;5585;52.530;7.320;2023-07-08T01:46:45;3.78;;;2.95;;
11064;SDS011;5585;52.530;7.320;2023-07-08T01:49:12;2.75;;;2.47;;
11064;SDS011;5585;52.530;7.320;2023-07-08T01:51:38;4.90;;;3.83;;
11064;SDS011;5585;52.530;7.320;2023-07-08T01:54:05;3.15;;;2.85;;
11064;SDS011;5585;52.530;7.320;2023-07-08T01:56:33;4.68;;;3.38;;
11064;SDS011;5585;52.530;7.320;2023-07-08T01:59:00;3.85;;;3.17;;
11064;SDS011;5585;52.530;7.320;2023-07-08T02:01:27;3.90;;;3.28;;
11064;SDS011;5585;52.530;7.320;2023-07-08T02:03:55;4.65;;;3.30;;
11064;SDS011;5585;52.530;7.320;2023-07-08T02:06:21;4.03;;;3.28;;
11064;SDS011;5585;52.530;7.320;2023-07-08T02:08:48;4.25;;;3.10;;
11064;SDS011;5585;52.530;7.320;2023-07-08T02:11:17;4.38;;;3.20;;
11064;SDS011;5585;52.530;7.320;2023-07-08T02:13:45;3.67;;;3.20;;
11064;SDS011;5585;52.530;7.320;2023-07-08T02:16:12;4.20;;;3.05;;
11064;SDS011;5585;52.530;7.320;2023-07-08T02:18:38;4.75;;;3.78;;
11064;SDS011;5585;52.530;7.320;2023-07-08T02:21:05;4.13;;;3.10;;
11064;SDS011;5585;52.530;7.320;2023-07-08T02:23:34;4.38;;;3.05;;
11064;SDS011;5585;52.530;7.320;2023-07-08T02:26:01;4.13;;;3.58;;
11064;SDS011;5585;52.530;7.320;2023-07-08T02:28:27;3.85;;;3.28;;
11064;SDS011;5585;52.530;7.320;2023-07-08T02:30:55;6.60;;;3.60;;
11064;SDS011;5585;52.530;7.320;2023-07-08T02:33:22;6.13;;;3.63;;
11064;SDS011;5585;52.530;7.320;2023-07-08T02:35:52;4.20;;;3.80;;
11064;SDS011;5585;52.530;7.320;2023-07-08T02:38:19;4.57;;;3.88;;
11064;SDS011;5585;52.530;7.320;2023-07-08T02:40:47;4.03;;;3.47;;
11064;SDS011;5585;52.530;7.320;2023-07-08T02:43:13;5.65;;;4.15;;
11064;SDS011;5585;52.530;7.320;2023-07-08T02:45:40;4.30;;;3.38;;
11064;SDS011;5585;52.530;7.320;2023-07-08T02:48:08;3.90;;;3.50;;
11064;SDS011;5585;52.530;7.320;2023-07-08T02:50:37;3.50;;;3.00;;
11064;SDS011;5585;52.530;7.320;2023-07-08T02:53:03;4.32;;;3.50;;
11064;SDS011;5585;52.530;7.320;2023-07-08T02:55:30;4.88;;;3.25;;
11064;SDS011;5585;52.530;7.320;2023-07-08T02:57:57;3.92;;;2.97;;
11064;SDS011;5585;52.530;7.320;2023-07-08T03:00:23;5.20;;;3.53;;
11064;SDS011;5585;52.530;7.320;2023-07-08T03:02:50;4.72;;;3.70;;
11064;SDS011;5585;52.530;7.320;2023-07-08T03:05:18;4.43;;;3.58;;
11064;SDS011;5585;52.530;7.320;2023-07-08T03:07:45;3.30;;;3.00;;
11064;SDS011;5585;52.530;7.320;2023-07-08T03:10:12;4.10;;;3.55;;
11064;SDS011;5585;52.530;7.320;2023-07-08T03:12:38;4.30;;;3.45;;
11064;SDS011;5585;52.530;7.320;2023-07-08T03:15:05;5.05;;;3.40;;
11064;SDS011;5585;52.530;7.320;2023-07-08T03:17:32;3.78;;;3.28;;
11064;SDS011;5585;52.530;7.320;2023-07-08T03:20:02;4.28;;;3.47;;
11064;SDS011;5585;52.530;7.320;2023-07-08T03:22:31;4.63;;;3.20;;
11064;SDS011;5585;52.530;7.320;2023-07-08T03:24:58;4.03;;;3.15;;
11064;SDS011;5585;52.530;7.320;2023-07-08T03:27:24;4.07;;;3.40;;
11064;SDS011;5585;52.530;7.320;2023-07-08T03:29:51;6.00;;;3.50;;
11064;SDS011;5585;52.530;7.320;2023-07-08T03:32:18;4.22;;;3.55;;
11064;SDS011;5585;52.530;7.320;2023-07-08T03:34:44;3.80;;;3.33;;
11064;SDS011;5585;52.530;7.320;2023-07-08T03:37:11;4.82;;;3.40;;
11064;SDS011;5585;52.530;7.320;2023-07-08T03:39:39;4.15;;;3.50;;
11064;SDS011;5585;52.530;7.320;2023-07-08T03:42:06;4.43;;;3.45;;
11064;SDS011;5585;52.530;7.320;2023-07-08T03:44:33;4.22;;;3.75;;
11064;SDS011;5585;52.530;7.320;2023-07-08T03:46:59;5.68;;;3.75;;
11064;SDS011;5585;52.530;7.320;2023-07-08T03:49:26;3.40;;;3.10;;
11064;SDS011;5585;52.530;7.320;2023-07-08T03:51:53;9.18;;;3.55;;
11064;SDS011;5585;52.530;7.320;2023-07-08T03:54:20;4.05;;;3.65;;
11064;SDS011;5585;52.530;7.320;2023-07-08T03:56:49;5.35;;;3.63;;
11064;SDS011;5585;52.530;7.320;2023-07-08T03:59:16;3.83;;;3.30;;
11064;SDS011;5585;52.530;7.320;2023-07-08T04:01:42;3.72;;;3.20;;
11064;SDS011;5585;52.530;7.320;2023-07-08T04:04:09;3.97;;;3.63;;
11064;SDS011;5585;52.530;7.320;2023-07-08T04:06:37;5.10;;;4.00;;
11064;SDS011;5585;52.530;7.320;2023-07-08T04:09:04;4.28;;;3.47;;
11064;SDS011;5585;52.530;7.320;2023-07-08T04:11:32;3.90;;;3.50;;
11064;SDS011;5585;52.530;7.320;2023-07-08T04:14:00;4.47;;;3.22;;
11064;SDS011;5585;52.530;7.320;2023-07-08T04:16:28;3.70;;;3.40;;
11064;SDS011;5585;52.530;7.320;2023-07-08T04:18:55;4.22;;;3.72;;
11064;SDS011;5585;52.530;7.320;2023-07-08T04:21:22;3.75;;;3.25;;
11064;SDS011;5585;52.530;7.320;2023-07-08T04:23:50;4.25;;;3.33;;
11064;SDS011;5585;52.530;7.320;2023-07-08T04:26:16;3.88;;;3.30;;
11064;SDS011;5585;52.530;7.320;2023-07-08T04:28:44;4.20;;;3.53;;
11064;SDS011;5585;52.530;7.320;2023-07-08T04:31:12;4.07;;;3.28;;
11064;SDS011;5585;52.530;7.320;2023-07-08T04:33:38;3.40;;;3.10;;
11064;SDS011;5585;52.530;7.320;2023-07-08T04:36:05;4.32;;;3.65;;
11064;SDS011;5585;52.530;7.320;2023-07-08T04:38:36;4.00;;;3.30;;
11064;SDS011;5585;52.530;7.320;2023-07-08T04:41:02;4.10;;;3.25;;
11064;SDS011;5585;52.530;7.320;2023-07-08T04:43:30;4.63;;;3.30;;
11064;SDS011;5585;52.530;7.320;2023-07-08T04:45:57;4.88;;;3.25;;
11064;SDS011;5585;52.530;7.320;2023-07-08T04:48:25;4.45;;;3.38;;
11064;SDS011;5585;52.530;7.320;2023-07-08T04:50:52;3.65;;;3.30;;
11064;SDS011;5585;52.530;7.320;2023-07-08T04:53:19;4.25;;;3.17;;
11064;SDS011;5585;52.530;7.320;2023-07-08T04:55:48;3.85;;;3.45;;
11064;SDS011;5585;52.530;7.320;2023-07-08T04:58:15;3.50;;;3.15;;
11064;SDS011;5585;52.530;7.320;2023-07-08T05:00:42;4.03;;;2.90;;
11064;SDS011;5585;52.530;7.320;2023-07-08T05:03:09;3.95;;;3.35;;
11064;SDS011;5585;52.530;7.320;2023-07-08T05:05:36;4.13;;;3.72;;
11064;SDS011;5585;52.530;7.320;2023-07-08T05:08:03;4.20;;;3.67;;
11064;SDS011;5585;52.530;7.320;2023-07-08T05:10:30;3.88;;;3.47;;
11064;SDS011;5585;52.530;7.320;2023-07-08T05:12:57;3.13;;;2.83;;
11064;SDS011;5585;52.530;7.320;2023-07-08T05:15:23;4.13;;;3.33;;
11064;SDS011;5585;52.530;7.320;2023-07-08T05:17:50;3.53;;;3.10;;
11064;SDS011;5585;52.530;7.320;2023-07-08T05:20:17;3.72;;;3.22;;
11064;SDS011;5585;52.530;7.320;2023-07-08T05:22:46;6.22;;;3.58;;
11064;SDS011;5585;52.530;7.320;2023-07-08T05:25:15;5.68;;;3.30;;
11064;SDS011;5585;52.530;7.320;2023-07-08T05:27:41;4.35;;;3.60;;
11064;SDS011;5585;52.530;7.320;2023-07-08T05:30:09;3.63;;;3.17;;
11064;SDS011;5585;52.530;7.320;2023-07-08T05:32:36;3.30;;;3.00;;
11064;SDS011;5585;52.530;7.320;2023-07-08T05:35:03;4.88;;;3.20;;
11064;SDS011;5585;52.530;7.320;2023-07-08T05:37:29;3.50;;;3.20;;
11064;SDS011;5585;52.530;7.320;2023-07-08T05:39:57;3.47;;;3.17;;
11064;SDS011;5585;52.530;7.320;2023-07-08T05:42:26;4.00;;;3.60;;
11064;SDS011;5585;52.530;7.320;2023-07-08T05:44:53;4.47;;;3.30;;
11064;SDS011;5585;52.530;7.320;2023-07-08T05:47:20;6.25;;;3.33;;
11064;SDS011;5585;52.530;7.320;2023-07-08T05:49:53;5.30;;;3.15;;
11064;SDS011;5585;52.530;7.320;2023-07-08T05:52:20;3.60;;;3.03;;
11064;SDS011;5585;52.530;7.320;2023-07-08T05:54:46;3.92;;;2.70;;
11064;SDS011;5585;52.530;7.320;2023-07-08T05:57:14;4.20;;;3.72;;
11064;SDS011;5585;52.530;7.320;2023-07-08T05:59:41;4.25;;;3.00;;
11064;SDS011;5585;52.530;7.320;2023-07-08T06:02:09;3.83;;;3.42;;
11064;SDS011;5585;52.530;7.320;2023-07-08T06:04:36;4.25;;;3.33;;
11064;SDS011;5585;52.530;7.320;2023-07-08T06:07:06;3.80;;;2.95;;
11064;SDS011;5585;52.530;7.320;2023-07-08T06:09:32;3.97;;;3.15;;
11064;SDS011;5585;52.530;7.320;2023-07-08T06:12:07;4.47;;;2.97;;
11064;SDS011;5585;52.530;7.320;2023-07-08T06:14:35;3.72;;;3.38;;
11064;SDS011;5585;52.530;7.320;2023-07-08T06:17:01;5.55;;;3.58;;
11064;SDS011;5585;52.530;7.320;2023-07-08T06:19:28;3.53;;;3.10;;
11064;SDS011;5585;52.530;7.320;2023-07-08T06:21:54;3.50;;;3.20;;
11064;SDS011;5585;52.530;7.320;2023-07-08T06:24:24;4.00;;;2.85;;
11064;SDS011;5585;52.530;7.320;2023-07-08T06:26:50;3.20;;;2.90;;
11064;SDS011;5585;52.530;7.320;2023-07-08T06:29:17;3.40;;;3.10;;
11064;SDS011;5585;52.530;7.320;2023-07-08T06:31:46;3.38;;;3.08;;
11064;SDS011;5585;52.530;7.320;2023-07-08T06:34:12;3.58;;;2.75;;
11064;SDS011;5585;52.530;7.320;2023-07-08T06:36:39;3.38;;;3.08;;
11064;SDS011;5585;52.530;7.320;2023-07-08T06:39:06;3.17;;;2.75;;
11064;SDS011;5585;52.530;7.320;2023-07-08T06:41:34;3.88;;;2.78;;
11064;SDS011;5585;52.530;7.320;2023-07-08T06:44:03;2.92;;;2.70;;
11064;SDS011;5585;52.530;7.320;2023-07-08T06:46:30;2.60;;;2.40;;
11064;SDS011;5585;52.530;7.320;2023-07-08T06:48:58;3.20;;;2.80;;
11064;SDS011;5585;52.530;7.320;2023-07-08T06:51:25;4.00;;;2.72;;
11064;SDS011;5585;52.530;7.320;2023-07-08T06:53:51;3.92;;;2.80;;
11064;SDS011;5585;52.530;7.320;2023-07-08T06:56:18;3.75;;;2.72;;
11064;SDS011;5585;52.530;7.320;2023-07-08T06:58:45;3.65;;;2.85;;
11064;SDS011;5585;52.530;7.320;2023-07-08T07:01:12;3.30;;;3.00;;
11064;SDS011;5585;52.530;7.320;2023-07-08T07:03:39;3.40;;;2.67;;
11064;SDS011;5585;52.530;7.320;2023-07-08T07:06:07;3.88;;;2.70;;
11064;SDS011;5585;52.530;7.320;2023-07-08T07:08:33;3.63;;;3.08;;
11064;SDS011;5585;52.530;7.320;2023-07-08T07:11:00;4.22;;;3.20;;
11064;SDS011;5585;52.530;7.320;2023-07-08T07:13:27;3.13;;;2.83;;
11064;SDS011;5585;52.530;7.320;2023-07-08T07:15:53;3.80;;;2.75;;
11064;SDS011;5585;52.530;7.320;2023-07-08T07:18:20;2.78;;;2.45;;
11064;SDS011;5585;52.530;7.320;2023-07-08T07:20:48;4.30;;;2.80;;
11064;SDS011;5585;52.530;7.320;2023-07-08T07:23:16;3.17;;;2.78;;
11064;SDS011;5585;52.530;7.320;2023-07-08T07:25:42;5.00;;;3.45;;
11064;SDS011;5585;52.530;7.320;2023-07-08T07:28:09;3.63;;;2.70;;
11064;SDS011;5585;52.530;7.320;2023-07-08T07:30:36;4.75;;;3.10;;
11064;SDS011;5585;52.530;7.320;2023-07-08T07:33:02;4.15;;;3.28;;
11064;SDS011;5585;52.530;7.320;2023-07-08T07:35:29;4.88;;;4.05;;
11064;SDS011;5585;52.530;7.320;2023-07-08T07:37:55;3.65;;;3.13;;
11064;SDS011;5585;52.530;7.320;2023-07-08T07:40:23;4.20;;;3.38;;
11064;SDS011;5585;52.530;7.320;2023-07-08T07:42:50;3.45;;;2.63;;
11064;SDS011;5585;52.530;7.320;2023-07-08T07:45:17;2.85;;;2.65;;
11064;SDS011;5585;52.530;7.320;2023-07-08T07:47:45;2.92;;;2.63;;
11064;SDS011;5585;52.530;7.320;2023-07-08T07:50:11;2.72;;;2.40;;
11064;SDS011;5585;52.530;7.320;2023-07-08T07:52:38;2.55;;;2.35;;
11064;SDS011;5585;52.530;7.320;2023-07-08T07:55:05;3.13;;;2.47;;
11064;SDS011;5585;52.530;7.320;2023-07-08T07:57:33;2.67;;;2.35;;
11064;SDS011;5585;52.530;7.320;2023-07-08T08:00:00;3.05;;;2.58;;
11064;SDS011;5585;52.530;7.320;2023-07-08T08:02:26;2.55;;;2.35;;
11064;SDS011;5585;52.530;7.320;2023-07-08T08:04:53;8.27;;;3.67;;
11064;SDS011;5585;52.530;7.320;2023-07-08T08:07:20;24.80;;;8.80;;
11064;SDS011;5585;52.530;7.320;2023-07-08T08:09:46;14.32;;;6.00;;
11064;SDS011;5585;52.530;7.320;2023-07-08T08:12:13;14.40;;;5.55;;
11064;SDS011;5585;52.530;7.320;2023-07-08T08:14:41;13.05;;;5.07;;
11064;SDS011;5585;52.530;7.320;2023-07-08T08:17:07;4.53;;;3.65;;
11064;SDS011;5585;52.530;7.320;2023-07-08T08:19:34;7.45;;;4.30;;
11064;SDS011;5585;52.530;7.320;2023-07-08T08:22:01;4.65;;;3.67;;
11064;SDS011;5585;52.530;7.320;2023-07-08T08:24:28;6.15;;;3.65;;
11064;SDS011;5585;52.530;7.320;2023-07-08T08:26:56;6.40;;;3.38;;
11064;SDS011;5585;52.530;7.320;2023-07-08T08:29:26;8.80;;;4.18;;
11064;SDS011;5585;52.530;7.320;2023-07-08T08:31:54;8.75;;;4.75;;
11064;SDS011;5585;52.530;7.320;2023-07-08T08:34:20;6.20;;;3.50;;
11064;SDS011;5585;52.530;7.320;2023-07-08T08:36:50;5.43;;;3.05;;
11064;SDS011;5585;52.530;7.320;2023-07-08T08:39:20;5.60;;;3.40;;
11064;SDS011;5585;52.530;7.320;2023-07-08T08:41:47;4.63;;;2.65;;
11064;SDS011;5585;52.530;7.320;2023-07-08T08:44:17;4.03;;;2.70;;
11064;SDS011;5585;52.530;7.320;2023-07-08T08:46:49;5.18;;;2.78;;
11064;SDS011;5585;52.530;7.320;2023-07-08T08:49:18;7.32;;;2.58;;
11064;SDS011;5585;52.530;7.320;2023-07-08T08:51:48;4.18;;;3.20;;
11064;SDS011;5585;52.530;7.320;2023-07-08T08:54:15;6.13;;;2.78;;
11064;SDS011;5585;52.530;7.320;2023-07-08T08:56:44;3.50;;;2.67;;
11064;SDS011;5585;52.530;7.320;2023-07-08T08:59:14;5.00;;;3.03;;
11064;SDS011;5585;52.530;7.320;2023-07-08T09:01:43;3.70;;;2.95;;
11064;SDS011;5585;52.530;7.320;2023-07-08T09:04:11;12.18;;;3.75;;
11064;SDS011;5585;52.530;7.320;2023-07-08T09:06:40;5.55;;;3.38;;
11064;SDS011;5585;52.530;7.320;2023-07-08T09:09:09;7.13;;;3.40;;
11064;SDS011;5585;52.530;7.320;2023-07-08T09:11:42;6.60;;;3.58;;
11064;SDS011;5585;52.530;7.320;2023-07-08T09:14:13;16.80;;;4.35;;
11064;SDS011;5585;52.530;7.320;2023-07-08T09:16:42;10.52;;;4.40;;
11064;SDS011;5585;52.530;7.320;2023-07-08T09:19:09;4.20;;;3.30;;
11064;SDS011;5585;52.530;7.320;2023-07-08T09:21:44;3.08;;;2.53;;
11064;SDS011;5585;52.530;7.320;2023-07-08T09:24:17;3.35;;;3.00;;
11064;SDS011;5585;52.530;7.320;2023-07-08T09:26:46;2.92;;;2.70;;
11064;SDS011;5585;52.530;7.320;2023-07-08T09:29:13;3.05;;;2.47;;
11064;SDS011;5585;52.530;7.320;2023-07-08T09:31:40;2.65;;;2.45;;
11064;SDS011;5585;52.530;7.320;2023-07-08T09:34:08;2.78;;;2.50;;
11064;SDS011;5585;52.530;7.320;2023-07-08T09:36:38;3.08;;;2.55;;
11064;SDS011;5585;52.530;7.320;2023-07-08T09:39:08;3.63;;;2.92;;
11064;SDS011;5585;52.530;7.320;2023-07-08T09:41:37;2.88;;;2.50;;
11064;SDS011;5585;52.530;7.320;2023-07-08T09:44:04;2.60;;;2.40;;
11064;SDS011;5585;52.530;7.320;2023-07-08T09:46:35;3.00;;;2.70;;
11064;SDS011;5585;52.530;7.320;2023-07-08T09:49:08;5.80;;;3.15;;
11064;SDS011;5585;52.530;7.320;2023-07-08T09:51:35;3.83;;;2.97;;
11064;SDS011;5585;52.530;7.320;2023-07-08T09:54:02;3.17;;;2.63;;
11064;SDS011;5585;52.530;7.320;2023-07-08T09:56:32;3.10;;;2.80;;
11064;SDS011;5585;52.530;7.320;2023-07-08T09:59:00;3.40;;;3.10;;
11064;SDS011;5585;52.530;7.320;2023-07-08T10:01:27;3.10;;;2.80;;
11064;SDS011;5585;52.530;7.320;2023-07-08T10:03:57;4.15;;;3.35;;
11064;SDS011;5585;52.530;7.320;2023-07-08T10:06:25;3.30;;;3.00;;
11064;SDS011;5585;52.530;7.320;2023-07-08T10:08:53;6.40;;;3.55;;
11064;SDS011;5585;52.530;7.320;2023-07-08T10:11:26;4.07;;;3.67;;
11064;SDS011;5585;52.530;7.320;2023-07-08T10:13:53;3.80;;;3.42;;
11064;SDS011;5585;52.530;7.320;2023-07-08T10:16:23;4.13;;;3.45;;
11064;SDS011;5585;52.530;7.320;2023-07-08T10:18:51;3.65;;;3.35;;
11064;SDS011;5585;52.530;7.320;2023-07-08T10:21:20;3.40;;;3.08;;
11064;SDS011;5585;52.530;7.320;2023-07-08T10:23:51;3.47;;;3.17;;
11064;SDS011;5585;52.530;7.320;2023-07-08T10:26:23;4.45;;;3.65;;
11064;SDS011;5585;52.530;7.320;2023-07-08T10:28:53;4.78;;;3.53;;
11064;SDS011;5585;52.530;7.320;2023-07-08T10:31:27;3.78;;;3.38;;
11064;SDS011;5585;52.530;7.320;2023-07-08T10:34:00;3.60;;;3.30;;
11064;SDS011;5585;52.530;7.320;2023-07-08T10:36:30;3.83;;;3.53;;
11064;SDS011;5585;52.530;7.320;2023-07-08T10:39:11;3.67;;;3.38;;
11064;SDS011;5585;52.530;7.320;2023-07-08T10:41:43;4.00;;;3.60;;
11064;SDS011;5585;52.530;7.320;2023-07-08T10:44:16;4.88;;;3.55;;
11064;SDS011;5585;52.530;7.320;2023-07-08T10:46:49;3.72;;;3.28;;
11064;SDS011;5585;52.530;7.320;2023-07-08T10:49:28;4.53;;;3.50;;
11064;SDS011;5585;52.530;7.320;2023-07-08T10:51:58;3.95;;;3.60;;
11064;SDS011;5585;52.530;7.320;2023-07-08T10:54:32;4.68;;;3.80;;
11064;SDS011;5585;52.530;7.320;2023-07-08T10:57:09;4.80;;;3.38;;
11064;SDS011;5585;52.530;7.320;2023-07-08T10:59:41;4.18;;;3.50;;
11064;SDS011;5585;52.530;7.320;2023-07-08T11:02:25;4.30;;;3.90;;
11064;SDS011;5585;52.530;7.320;2023-07-08T11:04:58;4.05;;;3.60;;
11064;SDS011;5585;52.530;7.320;2023-07-08T11:07:31;4.20;;;3.78;;
11064;SDS011;5585;52.530;7.320;2023-07-08T11:10:00;6.25;;;4.00;;
11064;SDS011;5585;52.530;7.320;2023-07-08T11:12:28;5.25;;;4.30;;
11064;SDS011;5585;52.530;7.320;2023-07-08T11:14:59;4.32;;;3.85;;
11064;SDS011;5585;52.530;7.320;2023-07-08T11:17:30;4.25;;;3.75;;
11064;SDS011;5585;52.530;7.320;2023-07-08T11:20:00;5.53;;;3.90;;
11064;SDS011;5585;52.530;7.320;2023-07-08T11:22:28;3.75;;;3.40;;
11064;SDS011;5585;52.530;7.320;2023-07-08T11:24:57;5.20;;;4.10;;
11064;SDS011;5585;52.530;7.320;2023-07-08T11:27:27;4.15;;;3.80;;
11064;SDS011;5585;52.530;7.320;2023-07-08T11:29:58;3.72;;;3.42;;
11064;SDS011;5585;52.530;7.320;2023-07-08T11:32:26;5.53;;;4.22;;
11064;SDS011;5585;52.530;7.320;2023-07-08T11:34:55;4.65;;;3.65;;
11064;SDS011;5585;52.530;7.320;2023-07-08T11:37:23;4.65;;;3.88;;
11064;SDS011;5585;52.530;7.320;2023-07-08T11:39:57;5.15;;;3.95;;
11064;SDS011;5585;52.530;7.320;2023-07-08T11:42:25;4.20;;;3.80;;
11064;SDS011;5585;52.530;7.320;2023-07-08T11:44:56;3.80;;;3.50;;
11064;SDS011;5585;52.530;7.320;2023-07-08T11:47:25;3.88;;;3.58;;
11064;SDS011;5585;52.530;7.320;2023-07-08T11:49:52;4.53;;;4.07;;
11064;SDS011;5585;52.530;7.320;2023-07-08T11:52:22;4.40;;;4.00;;
11064;SDS011;5585;52.530;7.320;2023-07-08T11:54:55;4.53;;;4.13;;
11064;SDS011;5585;52.530;7.320;2023-07-08T11:57:24;4.75;;;3.78;;
11064;SDS011;5585;52.530;7.320;2023-07-08T12:00:06;6.65;;;3.90;;
11064;SDS011;5585;52.530;7.320;2023-07-08T12:02:47;5.38;;;4.30;;
11064;SDS011;5585;52.530;7.320;2023-07-08T12:05:15;4.97;;;3.85;;
11064;SDS011;5585;52.530;7.320;2023-07-08T12:07:44;6.40;;;4.72;;
11064;SDS011;5585;52.530;7.320;2023-07-08T12:10:13;5.95;;;4.22;;
11064;SDS011;5585;52.530;7.320;2023-07-08T12:12:43;4.75;;;4.35;;
11064;SDS011;5585;52.530;7.320;2023-07-08T12:15:13;4.82;;;4.15;;
11064;SDS011;5585;52.530;7.320;2023-07-08T12:17:41;4.25;;;3.90;;
11064;SDS011;5585;52.530;7.320;2023-07-08T12:20:16;5.20;;;4.60;;
11064;SDS011;5585;52.530;7.320;2023-07-08T12:22:47;5.47;;;4.97;;
11064;SDS011;5585;52.530;7.320;2023-07-08T12:25:14;5.45;;;4.78;;
11064;SDS011;5585;52.530;7.320;2023-07-08T12:27:41;5.32;;;4.70;;
11064;SDS011;5585;52.530;7.320;2023-07-08T12:30:08;6.75;;;5.95;;
11064;SDS011;5585;52.530;7.320;2023-07-08T12:32:36;6.25;;;5.65;;
11064;SDS011;5585;52.530;7.320;2023-07-08T12:35:03;5.22;;;4.72;;
11064;SDS011;5585;52.530;7.320;2023-07-08T12:37:31;5.05;;;4.55;;
11064;SDS011;5585;52.530;7.320;2023-07-08T12:39:59;5.05;;;4.55;;
11064;SDS011;5585;52.530;7.320;2023-07-08T12:42:31;4.75;;;4.35;;
11064;SDS011;5585;52.530;7.320;2023-07-08T12:44:58;5.25;;;4.75;;
11064;SDS011;5585;52.530;7.320;2023-07-08T12:47:28;6.53;;;5.15;;
11064;SDS011;5585;52.530;7.320;2023-07-08T12:49:54;5.45;;;4.88;;
11064;SDS011;5585;52.530;7.320;2023-07-08T12:52:21;5.65;;;5.05;;
11064;SDS011;5585;52.530;7.320;2023-07-08T12:54:48;5.10;;;4.60;;
11064;SDS011;5585;52.530;7.320;2023-07-08T12:57:16;6.22;;;5.07;;
11064;SDS011;5585;52.530;7.320;2023-07-08T12:59:44;5.55;;;4.90;;
11064;SDS011;5585;52.530;7.320;2023-07-08T13:02:13;4.90;;;4.40;;
11064;SDS011;5585;52.530;7.320;2023-07-08T13:04:40;5.55;;;4.82;;
11064;SDS011;5585;52.530;7.320;2023-07-08T13:07:08;5.03;;;4.63;;
11064;SDS011;5585;52.530;7.320;2023-07-08T13:09:38;5.15;;;4.65;;
11064;SDS011;5585;52.530;7.320;2023-07-08T13:12:13;5.95;;;5.03;;
11064;SDS011;5585;52.530;7.320;2023-07-08T13:14:43;5.30;;;4.80;;
11064;SDS011;5585;52.530;7.320;2023-07-08T13:17:11;4.90;;;4.40;;
11064;SDS011;5585;52.530;7.320;2023-07-08T13:19:39;5.75;;;5.15;;
11064;SDS011;5585;52.530;7.320;2023-07-08T13:22:06;5.60;;;4.78;;
11064;SDS011;5585;52.530;7.320;2023-07-08T13:24:34;5.20;;;4.70;;
11064;SDS011;5585;52.530;7.320;2023-07-08T13:27:04;6.18;;;5.57;;
11064;SDS011;5585;52.530;7.320;2023-07-08T13:29:33;6.53;;;5.93;;
11064;SDS011;5585;52.530;7.320;2023-07-08T13:32:03;6.00;;;5.40;;
11064;SDS011;5585;52.530;7.320;2023-07-08T13:34:30;7.65;;;5.50;;
11064;SDS011;5585;52.530;7.320;2023-07-08T13:36:58;5.63;;;5.13;;
11064;SDS011;5585;52.530;7.320;2023-07-08T13:39:27;5.95;;;4.88;;
11064;SDS011;5585;52.530;7.320;2023-07-08T13:41:54;6.22;;;5.65;;
11064;SDS011;5585;52.530;7.320;2023-07-08T13:44:21;5.82;;;5.22;;
11064;SDS011;5585;52.530;7.320;2023-07-08T13:46:50;6.05;;;5.45;;
11064;SDS011;5585;52.530;7.320;2023-07-08T13:49:24;5.63;;;5.13;;
11064;SDS011;5585;52.530;7.320;2023-07-08T13:51:55;5.20;;;4.70;;
11064;SDS011;5585;52.530;7.320;2023-07-08T13:54:33;6.32;;;5.40;;
11064;SDS011;5585;52.530;7.320;2023-07-08T13:57:00;8.15;;;5.53;;
11064;SDS011;5585;52.530;7.320;2023-07-08T13:59:27;5.50;;;5.00;;
11064;SDS011;5585;52.530;7.320;2023-07-08T14:01:55;5.85;;;5.22;;
11064;SDS011;5585;52.530;7.320;2023-07-08T14:04:25;5.40;;;4.90;;
11064;SDS011;5585;52.530;7.320;2023-07-08T14:06:53;5.38;;;4.80;;
11064;SDS011;5585;52.530;7.320;2023-07-08T14:09:21;8.13;;;4.95;;
11064;SDS011;5585;52.530;7.320;2023-07-08T14:11:48;6.55;;;5.72;;
11064;SDS011;5585;52.530;7.320;2023-07-08T14:14:16;6.00;;;5.40;;
11064;SDS011;5585;52.530;7.320;2023-07-08T14:16:44;7.03;;;5.85;;
11064;SDS011;5585;52.530;7.320;2023-07-08T14:19:12;5.63;;;5.13;;
11064;SDS011;5585;52.530;7.320;2023-07-08T14:21:41;6.22;;;5.63;;
11064;SDS011;5585;52.530;7.320;2023-07-08T14:24:08;5.60;;;5.00;;
11064;SDS011;5585;52.530;7.320;2023-07-08T14:26:36;6.13;;;5.53;;
11064;SDS011;5585;52.530;7.320;2023-07-08T14:29:05;6.28;;;5.53;;
11064;SDS011;5585;52.530;7.320;2023-07-08T14:31:34;6.30;;;5.35;;
11064;SDS011;5585;52.530;7.320;2023-07-08T14:34:04;5.25;;;4.75;;
11064;SDS011;5585;52.530;7.320;2023-07-08T14:36:37;5.90;;;5.30;;
11064;SDS011;5585;52.530;7.320;2023-07-08T14:39:10;7.43;;;5.78;;
11064;SDS011;5585;52.530;7.320;2023-07-08T14:41:37;5.85;;;5.25;;
11064;SDS011;5585;52.530;7.320;2023-07-08T14:44:08;6.88;;;5.85;;
11064;SDS011;5585;52.530;7.320;2023-07-08T14:46:36;5.47;;;4.97;;
11064;SDS011;5585;52.530;7.320;2023-07-08T14:49:07;5.43;;;4.93;;
11064;SDS011;5585;52.530;7.320;2023-07-08T14:51:35;5.75;;;5.15;;
11064;SDS011;5585;52.530;7.320;2023-07-08T14:54:01;5.40;;;4.90;;
11064;SDS011;5585;52.530;7.320;2023-07-08T14:56:29;5.82;;;5.22;;
11064;SDS011;5585;52.530;7.320;2023-07-08T14:58:56;6.05;;;5.45;;
11064;SDS011;5585;52.530;7.320;2023-07-08T15:01:22;6.82;;;5.90;;
11064;SDS011;5585;52.530;7.320;2023-07-08T15:03:52;6.35;;;5.10;;
11064;SDS011;5585;52.530;7.320;2023-07-08T15:06:19;6.50;;;5.03;;